Time;durP1;ratioP1;P1;durP2;ratioP2;P2;SDS_P1;SDS_P2;PMS_P1;PMS_P2;Temp;Humidity;BMP_temperature;BMP_pressure;BME280_temperature;BME280_humidity;BME280_pressure;Samples;Min_cycle;Max_cycle;Signal;HPM_P1;HPM_P2
2023/07/18 00:01:27;;;;;;;2.00;1.33;;;22.40;58.70;;;;;;5115373;28;20172;-74
2023/07/18 00:03:52;;;;;;;1.40;1.27;;;22.40;58.80;;;;;;5115129;28;20209;-75
2023/07/18 00:06:18;;;;;;;3.10;1.50;;;22.40;58.70;;;;;;5115064;28;20682;-75
2023/07/18 00:08:44;;;;;;;2.05;1.33;;;22.40;58.70;;;;;;5114704;28;20168;-76
2023/07/18 00:11:10;;;;;;;1.80;1.33;;;22.40;58.70;;;;;;5114826;28;20177;-72
2023/07/18 00:13:35;;;;;;;1.88;1.20;;;22.40;58.70;;;;;;5115538;28;20219;-72
2023/07/18 00:16:01;;;;;;;0.95;0.93;;;22.40;58.80;;;;;;5114212;28;20512;-72
2023/07/18 00:18:26;;;;;;;2.05;1.33;;;22.40;58.70;;;;;;5115135;28;20601;-73
2023/07/18 00:20:52;;;;;;;1.65;1.30;;;22.40;58.80;;;;;;5115339;28;20165;-73
2023/07/18 00:23:18;;;;;;;1.20;1.10;;;22.40;58.80;;;;;;5113973;28;20188;-72
2023/07/18 00:25:44;;;;;;;1.55;1.20;;;22.40;58.70;;;;;;5115096;28;20188;-74
2023/07/18 00:28:09;;;;;;;1.30;1.20;;;22.40;58.70;;;;;;5114805;28;20177;-72
2023/07/18 00:30:35;;;;;;;1.27;1.17;;;22.40;58.80;;;;;;5113953;28;20227;-73
2023/07/18 00:33:01;;;;;;;2.65;1.10;;;22.40;58.70;;;;;;5114647;28;20173;-74
2023/07/18 00:35:27;;;;;;;1.48;1.20;;;22.40;58.80;;;;;;5114741;28;20173;-73
2023/07/18 00:37:53;;;;;;;1.50;1.10;;;22.40;58.80;;;;;;5114161;28;20177;-74
2023/07/18 00:40:18;;;;;;;1.33;1.23;;;22.40;58.90;;;;;;5114130;28;20227;-72
2023/07/18 00:42:45;;;;;;;2.22;1.30;;;22.40;58.80;;;;;;5114850;28;20177;-73
2023/07/18 00:45:11;;;;;;;2.45;0.98;;;22.40;58.90;;;;;;5113601;28;20632;-74
2023/07/18 00:47:42;;;;;;;1.45;1.10;;;22.30;58.80;;;;;;5114472;28;20220;-73
2023/07/18 00:50:15;;;;;;;0.90;0.88;;;22.30;58.80;;;;;;5114615;28;20183;-74
2023/07/18 00:52:48;;;;;;;1.80;1.30;;;22.40;58.90;;;;;;5113854;28;20174;-72
2023/07/18 00:55:14;;;;;;;2.65;1.40;;;22.30;58.90;;;;;;5096019;28;20250;-73
2023/07/18 00:57:41;;;;;;;1.17;1.10;;;22.40;58.90;;;;;;5114393;28;20671;-73
2023/07/18 01:00:09;;;;;;;2.03;1.42;;;22.30;58.80;;;;;;5113255;28;20179;-73
2023/07/18 01:02:35;;;;;;;1.25;1.15;;;22.30;58.80;;;;;;5096673;28;20246;-74
2023/07/18 01:05:00;;;;;;;1.45;1.10;;;22.30;58.80;;;;;;5113485;28;20177;-76
2023/07/18 01:07:26;;;;;;;1.20;1.10;;;22.30;58.80;;;;;;5114227;28;20217;-75
2023/07/18 01:09:53;;;;;;;1.88;1.10;;;22.30;58.90;;;;;;5096089;28;20208;-76
2023/07/18 01:12:19;;;;;;;1.63;1.10;;;22.30;59.50;;;;;;5112999;28;20199;-72
2023/07/18 01:14:45;;;;;;;1.85;1.40;;;22.30;59.40;;;;;;5114154;28;20616;-72
2023/07/18 01:17:12;;;;;;;2.03;1.10;;;22.30;58.90;;;;;;5113941;28;20169;-72
2023/07/18 01:19:38;;;;;;;1.17;1.08;;;22.30;58.90;;;;;;5078673;28;20177;-72
2023/07/18 01:22:03;;;;;;;1.13;1.00;;;22.30;58.90;;;;;;5113917;28;20169;-72
2023/07/18 01:24:29;;;;;;;1.88;1.08;;;22.30;58.90;;;;;;5114080;28;20588;-71
2023/07/18 01:26:54;;;;;;;1.02;0.90;;;22.20;58.90;;;;;;5113053;28;20655;-72
2023/07/18 01:29:20;;;;;;;1.05;0.90;;;22.30;58.90;;;;;;5113580;28;20195;-72
2023/07/18 01:31:48;;;;;;;0.70;0.70;;;22.20;58.90;;;;;;5113704;28;20691;-74
2023/07/18 01:34:14;;;;;;;1.05;0.93;;;22.20;58.90;;;;;;5112884;28;20197;-73
2023/07/18 01:36:40;;;;;;;0.90;0.80;;;22.30;58.90;;;;;;5113942;28;20177;-74
2023/07/18 01:39:06;;;;;;;2.75;1.20;;;22.20;58.90;;;;;;5113153;28;20220;-73
2023/07/18 01:41:31;;;;;;;0.77;0.77;;;22.20;58.90;;;;;;5113000;28;20173;-72
2023/07/18 01:43:57;;;;;;;1.08;0.93;;;22.20;58.90;;;;;;5113213;28;20299;-74
2023/07/18 01:46:23;;;;;;;2.83;1.10;;;22.20;58.90;;;;;;5113622;28;20209;-73
2023/07/18 01:48:48;;;;;;;1.30;0.85;;;22.20;59.00;;;;;;5112985;28;20196;-74
2023/07/18 01:51:14;;;;;;;1.55;1.20;;;22.20;59.60;;;;;;5112515;28;20172;-72
2023/07/18 01:53:39;;;;;;;1.38;1.00;;;22.20;59.00;;;;;;5113517;28;20173;-73
2023/07/18 01:56:06;;;;;;;1.10;1.00;;;22.20;59.60;;;;;;5112382;28;20169;-73
2023/07/18 01:58:31;;;;;;;1.20;0.90;;;22.20;59.00;;;;;;5113161;28;20184;-73
2023/07/18 02:00:57;;;;;;;1.65;0.95;;;22.20;59.00;;;;;;5113069;28;20471;-75
2023/07/18 02:03:22;;;;;;;2.10;0.98;;;22.20;59.10;;;;;;5112752;28;20177;-74
2023/07/18 02:05:48;;;;;;;1.02;0.88;;;22.20;59.10;;;;;;5113160;28;20169;-76
2023/07/18 02:08:13;;;;;;;1.17;0.98;;;22.20;59.10;;;;;;5112099;28;20317;-74
2023/07/18 02:10:39;;;;;;;0.80;0.80;;;22.20;59.10;;;;;;5113180;28;20211;-72
2023/07/18 02:13:04;;;;;;;1.13;1.02;;;22.20;59.10;;;;;;5112857;28;20176;-72
2023/07/18 02:15:30;;;;;;;1.20;0.88;;;22.20;59.10;;;;;;5112332;28;20578;-72
2023/07/18 02:17:56;;;;;;;0.77;0.77;;;22.10;59.10;;;;;;5112607;28;20568;-73
2023/07/18 02:20:21;;;;;;;1.95;1.13;;;22.20;59.70;;;;;;5113121;28;20177;-73
2023/07/18 02:22:47;;;;;;;2.88;1.15;;;22.10;59.10;;;;;;5112343;28;20563;-72
2023/07/18 02:25:15;;;;;;;1.42;1.00;;;22.10;59.20;;;;;;5112767;28;20234;-72
2023/07/18 02:27:40;;;;;;;1.20;0.90;;;22.10;59.10;;;;;;5112822;28;20205;-72
2023/07/18 02:30:11;;;;;;;1.20;0.90;;;22.10;59.10;;;;;;5112093;28;20169;-73
2023/07/18 02:32:39;;;;;;;1.92;1.20;;;22.10;59.10;;;;;;5113018;28;20226;-75
2023/07/18 02:35:06;;;;;;;1.02;0.80;;;22.10;59.20;;;;;;5112649;28;20192;-74
2023/07/18 02:37:32;;;;;;;1.63;0.82;;;22.10;59.10;;;;;;5111929;28;20525;-73
2023/07/18 02:39:58;;;;;;;1.13;0.80;;;22.10;59.20;;;;;;5112321;28;20217;-74
2023/07/18 02:42:23;;;;;;;1.25;0.88;;;22.10;59.10;;;;;;5112710;28;20187;-74
2023/07/18 02:44:49;;;;;;;1.52;1.00;;;22.10;59.20;;;;;;5112271;28;20165;-75
2023/07/18 02:47:15;;;;;;;2.10;0.85;;;22.10;59.20;;;;;;5112413;28;20211;-74
2023/07/18 02:49:40;;;;;;;1.45;0.75;;;22.10;59.20;;;;;;5112989;28;20181;-74
2023/07/18 02:52:07;;;;;;;1.23;1.00;;;22.10;59.20;;;;;;5111814;28;20177;-73
2023/07/18 02:54:32;;;;;;;1.52;0.85;;;22.10;59.20;;;;;;5112817;28;20643;-73
2023/07/18 02:56:58;;;;;;;1.17;0.70;;;22.10;59.20;;;;;;5112461;28;20219;-72
2023/07/18 02:59:24;;;;;;;1.63;0.75;;;22.00;59.10;;;;;;5111868;28;20169;-72
2023/07/18 03:01:50;;;;;;;1.02;0.90;;;22.10;59.20;;;;;;5113300;28;20173;-74
2023/07/18 03:04:16;;;;;;;2.15;1.00;;;22.00;59.20;;;;;;5116446;28;20184;-74
2023/07/18 03:06:42;;;;;;;1.08;0.75;;;22.00;59.20;;;;;;5115752;28;20243;-75
2023/07/18 03:09:08;;;;;;;1.52;1.00;;;22.10;59.20;;;;;;5115882;28;20216;-75
2023/07/18 03:11:33;;;;;;;1.00;1.00;;;22.00;59.20;;;;;;5115995;28;20815;-72
2023/07/18 03:13:59;;;;;;;1.92;1.00;;;22.00;59.20;;;;;;5116472;28;20508;-72
2023/07/18 03:16:27;;;;;;;2.00;0.73;;;22.00;59.20;;;;;;5116460;28;20169;-73
2023/07/18 03:18:54;;;;;;;1.10;1.00;;;22.00;59.20;;;;;;5115586;28;20177;-72
2023/07/18 03:21:20;;;;;;;1.27;1.02;;;22.00;59.20;;;;;;5116077;28;20544;-72
2023/07/18 03:23:45;;;;;;;1.77;0.95;;;22.00;59.80;;;;;;5116046;28;20177;-72
2023/07/18 03:26:11;;;;;;;2.05;0.90;;;22.00;59.20;;;;;;5114996;28;20596;-72
2023/07/18 03:28:36;;;;;;;1.48;0.98;;;22.00;59.20;;;;;;5115896;28;20207;-72
2023/07/18 03:31:02;;;;;;;1.10;0.80;;;22.00;59.20;;;;;;5115620;28;20208;-74
2023/07/18 03:33:28;;;;;;;1.45;1.00;;;22.00;59.20;;;;;;5115355;28;20185;-73
2023/07/18 03:35:54;;;;;;;2.00;1.02;;;22.00;59.20;;;;;;5115894;28;20521;-74
2023/07/18 03:38:19;;;;;;;1.30;0.80;;;22.00;59.20;;;;;;5115381;28;20181;-72
2023/07/18 03:40:47;;;;;;;1.70;0.85;;;22.00;59.30;;;;;;5115142;28;20187;-74
2023/07/18 03:43:12;;;;;;;0.88;0.80;;;21.90;59.20;;;;;;5097756;28;20216;-73
2023/07/18 03:45:38;;;;;;;1.20;0.90;;;22.00;59.20;;;;;;5115854;28;20193;-74
2023/07/18 03:48:04;;;;;;;1.10;0.88;;;21.90;59.20;;;;;;5114901;28;20247;-74
2023/07/18 03:50:29;;;;;;;0.90;0.82;;;22.00;59.20;;;;;;5116198;28;20233;-73
2023/07/18 03:52:55;;;;;;;1.95;0.65;;;21.90;59.20;;;;;;5115892;28;20574;-71
2023/07/18 03:55:20;;;;;;;2.95;0.82;;;22.00;59.30;;;;;;5115240;28;20183;-71
2023/07/18 03:57:46;;;;;;;1.00;0.85;;;21.90;59.20;;;;;;5115543;28;20531;-72
2023/07/18 04:00:17;;;;;;;1.65;0.80;;;21.90;59.20;;;;;;5115360;28;20177;-73
2023/07/18 04:02:43;;;;;;;2.47;0.70;;;21.90;59.10;;;;;;5114937;28;20177;-74
2023/07/18 04:05:10;;;;;;;1.10;0.93;;;21.90;59.20;;;;;;5115077;28;20634;-74
2023/07/18 04:07:36;;;;;;;1.55;1.02;;;21.90;59.20;;;;;;5114912;28;20213;-74
2023/07/18 04:10:02;;;;;;;1.85;1.00;;;21.90;59.10;;;;;;5114910;28;20624;-73
2023/07/18 04:12:28;;;;;;;0.80;0.68;;;21.90;59.10;;;;;;5115502;28;20520;-72
2023/07/18 04:14:54;;;;;;;2.40;1.10;;;21.90;59.70;;;;;;5113848;28;20188;-72
2023/07/18 04:17:19;;;;;;;0.93;0.70;;;21.90;59.20;;;;;;5115004;28;20177;-71
2023/07/18 04:19:45;;;;;;;0.80;0.80;;;21.90;59.10;;;;;;5115399;28;20221;-72
2023/07/18 04:22:11;;;;;;;2.83;0.68;;;21.90;59.10;;;;;;5114204;28;20177;-72
2023/07/18 04:24:36;;;;;;;0.98;0.88;;;22.00;59.20;;;;;;5114927;28;20302;-72
2023/07/18 04:27:02;;;;;;;1.75;1.02;;;21.90;59.10;;;;;;5114557;28;20209;-71
2023/07/18 04:29:28;;;;;;;0.75;0.70;;;21.90;59.10;;;;;;5114139;28;20181;-72
2023/07/18 04:31:53;;;;;;;0.88;0.70;;;21.90;59.80;;;;;;5114986;28;20252;-73
2023/07/18 04:34:19;;;;;;;1.35;0.70;;;21.90;59.10;;;;;;5114423;28;20261;-74
2023/07/18 04:36:45;;;;;;;0.90;0.80;;;21.90;59.10;;;;;;5114119;28;20184;-74
2023/07/18 04:39:10;;;;;;;1.58;0.80;;;21.90;59.10;;;;;;5114479;28;20220;-73
2023/07/18 04:41:36;;;;;;;2.03;1.08;;;21.90;59.20;;;;;;5114936;28;20165;-73
2023/07/18 04:44:02;;;;;;;1.13;1.00;;;21.90;59.10;;;;;;5113935;28;20202;-75
2023/07/18 04:46:27;;;;;;;1.00;0.70;;;21.90;59.10;;;;;;5114732;28;20585;-73
2023/07/18 04:48:53;;;;;;;1.38;0.98;;;21.90;59.10;;;;;;5114668;28;20215;-75
2023/07/18 04:51:18;;;;;;;0.73;0.73;;;21.90;59.10;;;;;;5113546;28;20225;-73
2023/07/18 04:53:44;;;;;;;0.80;0.80;;;21.90;59.10;;;;;;5114784;28;20255;-73
2023/07/18 04:56:12;;;;;;;1.05;0.80;;;21.90;59.10;;;;;;5114319;28;20264;-73
2023/07/18 04:58:37;;;;;;;0.70;0.70;;;21.90;59.10;;;;;;5113771;28;20173;-73
2023/07/18 05:01:03;;;;;;;1.20;0.90;;;21.90;59.00;;;;;;5114055;28;20177;-76
2023/07/18 05:03:29;;;;;;;1.52;0.70;;;21.90;59.00;;;;;;5114489;28;20165;-73
2023/07/18 05:05:55;;;;;;;1.15;0.88;;;22.00;59.00;;;;;;5113348;28;20252;-74
2023/07/18 05:08:21;;;;;;;1.23;0.80;;;21.90;58.90;;;;;;5114420;28;20231;-75
2023/07/18 05:10:47;;;;;;;1.05;0.73;;;21.90;58.90;;;;;;5114383;28;20663;-73
2023/07/18 05:13:12;;;;;;;0.85;0.82;;;21.90;59.00;;;;;;5112890;28;20546;-72
2023/07/18 05:15:38;;;;;;;1.13;1.02;;;21.90;58.90;;;;;;5114048;28;20177;-72
2023/07/18 05:18:03;;;;;;;1.95;0.90;;;22.00;59.00;;;;;;5094745;28;20180;-71
2023/07/18 05:20:29;;;;;;;2.08;0.60;;;21.90;58.90;;;;;;5113872;28;20246;-71
2023/07/18 05:22:55;;;;;;;1.38;0.75;;;22.00;59.00;;;;;;5114124;28;20208;-71
2023/07/18 05:25:21;;;;;;;2.38;0.93;;;22.00;59.00;;;;;;5112976;28;20643;-71
2023/07/18 05:27:46;;;;;;;0.88;0.80;;;22.00;59.00;;;;;;5113741;28;20289;-72
2023/07/18 05:30:19;;;;;;;1.20;1.10;;;22.00;59.00;;;;;;5113470;28;20204;-73
2023/07/18 05:32:45;;;;;;;2.03;0.88;;;22.00;59.00;;;;;;5113029;28;20184;-74
2023/07/18 05:35:13;;;;;;;1.48;1.00;;;22.00;59.00;;;;;;5113245;28;20169;-74
2023/07/18 05:37:39;;;;;;;1.02;0.75;;;22.00;59.00;;;;;;5113849;28;20612;-74
2023/07/18 05:40:10;;;;;;;1.10;1.00;;;21.90;58.90;;;;;;5112557;28;20217;-74
2023/07/18 05:42:36;;;;;;;0.77;0.77;;;22.00;59.00;;;;;;5113498;28;20176;-73
2023/07/18 05:45:02;;;;;;;0.80;0.70;;;22.00;59.00;;;;;;5113287;28;20174;-74
2023/07/18 05:47:28;;;;;;;1.40;1.00;;;21.90;59.10;;;;;;5112703;28;20216;-74
2023/07/18 05:49:54;;;;;;;1.17;0.70;;;21.90;59.70;;;;;;5113505;28;20177;-74
2023/07/18 05:52:19;;;;;;;0.70;0.70;;;21.90;59.10;;;;;;5113130;28;20536;-72
2023/07/18 05:54:45;;;;;;;1.48;0.90;;;21.90;59.10;;;;;;5112735;28;20230;-72
2023/07/18 05:57:11;;;;;;;1.05;0.95;;;21.90;59.00;;;;;;5113133;28;20177;-73
2023/07/18 05:59:36;;;;;;;0.80;0.60;;;22.00;59.00;;;;;;5113497;28;20542;-72
2023/07/18 06:02:02;;;;;;;0.93;0.63;;;22.00;59.00;;;;;;5112361;28;20169;-75
2023/07/18 06:04:28;;;;;;;2.08;0.90;;;22.00;59.00;;;;;;5113478;28;20180;-76
2023/07/18 06:06:54;;;;;;;1.23;0.80;;;22.00;59.00;;;;;;5114341;28;20219;-75
2023/07/18 06:09:19;;;;;;;1.63;0.70;;;22.00;59.00;;;;;;5112348;28;20180;-74
2023/07/18 06:11:45;;;;;;;0.88;0.88;;;22.00;59.00;;;;;;5113178;28;20184;-72
2023/07/18 06:14:10;;;;;;;1.67;0.75;;;22.00;59.00;;;;;;5112929;28;20176;-73
2023/07/18 06:16:36;;;;;;;1.67;0.88;;;22.00;58.90;;;;;;5112510;28;20179;-72
2023/07/18 06:19:01;;;;;;;1.00;0.88;;;22.00;59.00;;;;;;5112763;28;20299;-71
2023/07/18 06:21:27;;;;;;;0.90;0.77;;;22.00;58.90;;;;;;5112614;28;20217;-71
2023/07/18 06:23:53;;;;;;;1.02;0.93;;;22.10;58.90;;;;;;5113196;28;20173;-73
2023/07/18 06:26:19;;;;;;;1.20;0.68;;;22.00;58.90;;;;;;5094536;28;20209;-72
2023/07/18 06:28:45;;;;;;;1.35;0.90;;;22.00;58.90;;;;;;5112367;28;20205;-74
2023/07/18 06:31:10;;;;;;;1.20;0.88;;;22.10;58.90;;;;;;5112731;28;20177;-73
2023/07/18 06:33:37;;;;;;;1.23;0.93;;;22.10;58.90;;;;;;5113017;28;20177;-74
2023/07/18 06:36:03;;;;;;;1.13;0.90;;;22.00;58.80;;;;;;5112192;28;20174;-74
2023/07/18 06:38:28;;;;;;;2.05;0.90;;;22.10;58.90;;;;;;5116381;28;20226;-74
2023/07/18 06:40:55;;;;;;;1.27;0.93;;;22.10;58.80;;;;;;5117142;28;20184;-71
2023/07/18 06:43:21;;;;;;;0.80;0.80;;;22.10;58.80;;;;;;5116391;28;20251;-69
2023/07/18 06:45:46;;;;;;;0.90;0.88;;;22.10;58.80;;;;;;5116914;28;20220;-69
2023/07/18 06:48:15;;;;;;;2.88;1.10;;;22.10;58.80;;;;;;5116635;28;20185;-68
2023/07/18 06:50:51;;;;;;;0.98;0.80;;;22.10;58.80;;;;;;5116165;28;20177;-68
2023/07/18 06:53:19;;;;;;;2.30;1.08;;;22.10;58.80;;;;;;5116460;28;20700;-68
2023/07/18 06:55:45;;;;;;;1.15;0.77;;;22.10;59.50;;;;;;5116645;28;20602;-69
2023/07/18 06:58:10;;;;;;;1.20;0.90;;;22.20;58.90;;;;;;5115663;28;20181;-70
2023/07/18 07:00:37;;;;;;;1.60;1.17;;;22.10;58.80;;;;;;5116659;28;20241;-71
2023/07/18 07:03:03;;;;;;;1.52;1.00;;;22.20;58.90;;;;;;5116370;28;20211;-71
2023/07/18 07:05:28;;;;;;;1.55;0.80;;;22.20;58.90;;;;;;5116177;28;20169;-71
2023/07/18 07:07:57;;;;;;;3.28;1.20;;;22.10;58.80;;;;;;5116500;28;20694;-70
2023/07/18 07:10:22;;;;;;;1.70;1.17;;;22.20;58.80;;;;;;5116571;28;20165;-70
2023/07/18 07:12:48;;;;;;;1.92;1.02;;;22.20;58.80;;;;;;5115702;28;20177;-69
2023/07/18 07:15:14;;;;;;;2.67;1.05;;;22.20;59.40;;;;;;5116179;28;20290;-70
2023/07/18 07:17:39;;;;;;;1.80;1.00;;;22.20;58.80;;;;;;5115852;28;20173;-68
2023/07/18 07:20:14;;;;;;;1.40;0.90;;;22.20;58.70;;;;;;5116136;28;20246;-68
2023/07/18 07:22:43;;;;;;;2.50;1.10;;;22.20;58.70;;;;;;5116244;28;20635;-70
2023/07/18 07:25:13;;;;;;;1.77;1.10;;;22.20;58.70;;;;;;5115371;28;20180;-69
2023/07/18 07:27:39;;;;;;;2.05;1.00;;;22.20;58.60;;;;;;5115689;28;20219;-68
2023/07/18 07:30:05;;;;;;;1.30;1.10;;;22.20;58.60;;;;;;5115636;28;20173;-68
2023/07/18 07:32:31;;;;;;;1.52;1.10;;;22.20;58.60;;;;;;5115373;28;20177;-68
2023/07/18 07:34:57;;;;;;;1.80;1.20;;;22.30;58.60;;;;;;5115847;28;20169;-71
2023/07/18 07:37:23;;;;;;;2.67;1.10;;;22.30;58.60;;;;;;5115547;28;20183;-70
2023/07/18 07:39:49;;;;;;;2.05;1.10;;;22.30;58.60;;;;;;5114916;28;20217;-69
2023/07/18 07:42:14;;;;;;;1.52;0.68;;;22.30;58.60;;;;;;5115447;28;20260;-69
2023/07/18 07:44:40;;;;;;;1.20;1.10;;;22.30;58.50;;;;;;5115888;28;20512;-68
2023/07/18 07:47:06;;;;;;;1.55;1.15;;;22.30;58.50;;;;;;5114679;28;20797;-69
2023/07/18 07:49:31;;;;;;;1.65;1.10;;;22.30;58.50;;;;;;5114698;28;20169;-69
2023/07/18 07:51:57;;;;;;;1.23;0.93;;;22.30;58.50;;;;;;5115341;28;20225;-68
2023/07/18 07:54:22;;;;;;;3.30;1.20;;;22.30;58.40;;;;;;5114951;28;20254;-68
2023/07/18 07:56:48;;;;;;;2.90;1.27;;;22.30;59.10;;;;;;5115474;28;20250;-69
2023/07/18 07:59:14;;;;;;;2.60;1.13;;;22.40;58.50;;;;;;5115119;28;20180;-72
2023/07/18 08:01:39;;;;;;;1.85;1.10;;;22.30;59.00;;;;;;5114923;28;20181;-70
2023/07/18 08:04:05;;;;;;;2.50;1.40;;;22.40;58.40;;;;;;5115393;28;20165;-68
2023/07/18 08:06:30;;;;;;;3.65;1.48;;;22.40;59.00;;;;;;5115391;28;20627;-72
2023/07/18 08:08:56;;;;;;;1.70;1.38;;;22.40;58.30;;;;;;5122441;27;20176;-70
2023/07/18 08:11:21;;;;;;;1.77;1.00;;;22.40;58.90;;;;;;5126054;27;20218;-69
2023/07/18 08:13:47;;;;;;;2.63;1.05;;;22.50;58.20;;;;;;5124127;27;20728;-70
2023/07/18 08:16:13;;;;;;;1.83;1.15;;;22.50;58.10;;;;;;5125911;27;20197;-69
2023/07/18 08:18:38;;;;;;;2.28;1.20;;;22.50;58.00;;;;;;5124150;27;20173;-71
2023/07/18 08:21:04;;;;;;;2.25;1.10;;;22.60;58.10;;;;;;5125428;27;20528;-71
2023/07/18 08:23:29;;;;;;;2.97;1.58;;;22.60;58.10;;;;;;5135547;27;20623;-71
2023/07/18 08:25:55;;;;;;;3.67;1.25;;;22.60;58.10;;;;;;5135236;27;20165;-70
2023/07/18 08:28:22;;;;;;;1.30;1.10;;;22.60;58.10;;;;;;5135042;27;20180;-72
2023/07/18 08:30:47;;;;;;;2.40;1.30;;;22.60;58.10;;;;;;5134927;27;20199;-71
2023/07/18 08:33:15;;;;;;;1.90;1.20;;;22.60;58.10;;;;;;5135195;27;20631;-71
2023/07/18 08:35:40;;;;;;;5.38;1.55;;;22.70;58.20;;;;;;5134407;27;20333;-70
2023/07/18 08:38:06;;;;;;;2.13;1.33;;;22.70;58.20;;;;;;5134961;27;20683;-71
2023/07/18 08:40:32;;;;;;;2.30;1.20;;;22.70;58.20;;;;;;5135067;27;20224;-69
2023/07/18 08:42:57;;;;;;;2.28;1.00;;;22.70;58.10;;;;;;5115769;27;20172;-72
2023/07/18 08:45:23;;;;;;;1.65;1.10;;;22.70;58.20;;;;;;5134752;27;20172;-72
2023/07/18 08:47:51;;;;;;;2.60;1.17;;;22.70;58.20;;;;;;5116310;27;20697;-75
2023/07/18 08:50:17;;;;;;;2.67;1.20;;;22.80;58.90;;;;;;5133793;27;20192;-70
2023/07/18 08:52:42;;;;;;;2.13;1.05;;;22.80;58.90;;;;;;5135071;27;20245;-68
2023/07/18 08:55:08;;;;;;;2.83;1.10;;;22.80;58.20;;;;;;5116311;27;20297;-70
2023/07/18 08:57:34;;;;;;;6.50;1.75;;;22.80;58.30;;;;;;5116206;27;20176;-69
2023/07/18 09:00:01;;;;;;;1.20;1.00;;;22.80;58.40;;;;;;5134591;27;20572;-72
2023/07/18 09:02:27;;;;;;;1.65;1.20;;;22.90;58.40;;;;;;5116862;27;20187;-68
2023/07/18 09:04:52;;;;;;;2.92;1.30;;;22.90;58.30;;;;;;5134168;27;20247;-69
2023/07/18 09:07:19;;;;;;;3.60;1.40;;;22.90;58.20;;;;;;5134449;27;20292;-69
2023/07/18 09:09:48;;;;;;;3.08;1.35;;;23.00;58.20;;;;;;5134604;27;20177;-68
2023/07/18 09:12:13;;;;;;;4.28;1.60;;;22.90;58.20;;;;;;5133658;27;20523;-68
2023/07/18 09:14:39;;;;;;;1.63;1.10;;;23.00;58.90;;;;;;5134822;27;20247;-68
2023/07/18 09:17:06;;;;;;;1.80;1.00;;;23.00;58.20;;;;;;5134051;27;20203;-66
2023/07/18 09:19:39;;;;;;;2.88;1.00;;;23.00;58.20;;;;;;5134464;27;20197;-67
2023/07/18 09:22:06;;;;;;;1.33;1.05;;;23.00;58.20;;;;;;5134076;27;20527;-69
2023/07/18 09:24:32;;;;;;;2.92;1.30;;;23.00;58.20;;;;;;5133559;27;20221;-69
2023/07/18 09:26:57;;;;;;;1.27;1.00;;;23.10;58.20;;;;;;5134000;27;20208;-70
2023/07/18 09:29:25;;;;;;;1.60;0.98;;;23.10;58.10;;;;;;5134518;27;20165;-69
2023/07/18 09:31:50;;;;;;;3.85;1.65;;;23.10;58.10;;;;;;5133697;27;20176;-71
2023/07/18 09:34:16;;;;;;;2.15;1.10;;;23.10;58.10;;;;;;5134032;27;20183;-71
2023/07/18 09:36:41;;;;;;;2.47;1.42;;;23.10;58.80;;;;;;5134125;27;20165;-71
2023/07/18 09:39:07;;;;;;;2.85;1.10;;;23.20;58.10;;;;;;5097331;27;20264;-71
2023/07/18 09:41:34;;;;;;;2.47;1.10;;;23.20;58.10;;;;;;5116064;27;20177;-71
2023/07/18 09:43:59;;;;;;;2.80;1.30;;;23.20;58.20;;;;;;5115771;27;20169;-71
2023/07/18 09:46:25;;;;;;;1.88;1.08;;;23.20;58.20;;;;;;5097889;27;20204;-71
2023/07/18 09:48:50;;;;;;;3.58;1.20;;;23.20;58.10;;;;;;5134045;27;20300;-68
2023/07/18 09:51:19;;;;;;;2.70;1.00;;;23.20;58.10;;;;;;5133769;27;20176;-67
2023/07/18 09:53:46;;;;;;;2.17;1.00;;;23.20;58.00;;;;;;5133571;27;20206;-70
2023/07/18 09:56:14;;;;;;;1.80;1.17;;;23.30;58.10;;;;;;5133879;27;20168;-71
2023/07/18 09:58:39;;;;;;;2.08;1.00;;;23.30;58.00;;;;;;5133884;27;20535;-71
2023/07/18 10:01:08;;;;;;;2.72;1.25;;;23.30;58.00;;;;;;5114868;27;20176;-77
2023/07/18 10:03:34;;;;;;;2.22;0.93;;;23.30;57.90;;;;;;5115820;27;20536;-73
2023/07/18 10:05:59;;;;;;;2.55;1.40;;;23.30;57.70;;;;;;5115075;27;20187;-73
2023/07/18 10:08:25;;;;;;;2.72;1.00;;;23.30;57.70;;;;;;5097986;27;20183;-71
2023/07/18 10:11:00;;;;;;;3.53;1.05;;;23.30;57.70;;;;;;5098906;27;20631;-74
2023/07/18 10:13:25;;;;;;;3.08;0.98;;;23.40;57.70;;;;;;5132758;28;20263;-76
2023/07/18 10:16:13;;;;;;;1.40;1.10;;;23.40;57.50;;;;;;5133775;28;20259;-75
2023/07/18 10:18:49;;;;;;;2.03;1.17;;;23.40;57.50;;;;;;5133617;28;20203;-69
2023/07/18 10:21:28;;;;;;;2.95;1.10;;;23.40;57.40;;;;;;5132906;28;20241;-69
2023/07/18 10:23:54;;;;;;;2.83;1.30;;;23.40;57.40;;;;;;5133777;28;20570;-70
2023/07/18 10:26:32;;;;;;;2.25;0.98;;;23.40;57.40;;;;;;5133391;28;20192;-70
2023/07/18 10:29:02;;;;;;;1.92;1.00;;;23.50;57.40;;;;;;5132529;28;20205;-71
2023/07/18 10:31:34;;;;;;;1.80;1.02;;;23.50;57.40;;;;;;5133808;28;20172;-71
2023/07/18 10:34:10;;;;;;;3.70;1.00;;;23.50;57.50;;;;;;5115539;28;20176;-72
2023/07/18 10:36:39;;;;;;;2.70;0.82;;;23.50;57.50;;;;;;5132979;28;20176;-70
2023/07/18 10:39:14;;;;;;;3.33;0.95;;;23.50;57.50;;;;;;5133073;28;20227;-70
2023/07/18 10:41:43;;;;;;;2.63;1.20;;;23.60;57.50;;;;;;5132665;28;20646;-68
2023/07/18 10:44:15;;;;;;;1.83;1.00;;;23.60;57.60;;;;;;5133115;28;20740;-72
2023/07/18 10:46:40;;;;;;;1.00;0.90;;;23.60;57.50;;;;;;5133615;28;20345;-72
2023/07/18 10:49:06;;;;;;;2.17;0.88;;;23.60;57.60;;;;;;5132556;28;20638;-70
2023/07/18 10:51:33;;;;;;;2.00;1.00;;;23.60;57.50;;;;;;5133516;28;20199;-67
2023/07/18 10:53:59;;;;;;;3.53;1.02;;;23.60;57.40;;;;;;5132793;28;20177;-67
2023/07/18 10:56:24;;;;;;;3.72;1.30;;;23.60;57.90;;;;;;5133139;28;20180;-67
2023/07/18 10:58:51;;;;;;;6.30;1.23;;;23.50;57.20;;;;;;5133446;28;20199;-67
2023/07/18 11:01:17;;;;;;;4.18;1.45;;;23.50;57.20;;;;;;5133103;28;20627;-68
2023/07/18 11:03:45;;;;;;;2.05;1.13;;;23.60;57.20;;;;;;5114563;28;20222;-69
2023/07/18 11:06:10;;;;;;;2.33;1.30;;;23.60;57.00;;;;;;5132938;28;20200;-67
2023/07/18 11:08:37;;;;;;;3.33;1.42;;;23.60;56.90;;;;;;5133317;28;20305;-67
2023/07/18 11:11:04;;;;;;;3.65;1.55;;;23.60;56.90;;;;;;5132414;28;20271;-68
2023/07/18 11:13:33;;;;;;;3.85;1.65;;;23.60;56.90;;;;;;5133174;28;20173;-66
2023/07/18 11:16:06;;;;;;;3.20;1.35;;;23.60;56.90;;;;;;5132899;28;20179;-67
2023/07/18 11:18:33;;;;;;;3.08;1.40;;;23.60;56.80;;;;;;5114976;28;20682;-67
2023/07/18 11:21:02;;;;;;;3.90;1.38;;;23.60;56.70;;;;;;5132680;28;20257;-68
2023/07/18 11:23:28;;;;;;;2.17;1.67;;;23.60;56.70;;;;;;5135632;27;20180;-67
2023/07/18 11:25:53;;;;;;;2.97;1.50;;;23.60;56.60;;;;;;5118006;27;20252;-67
2023/07/18 11:28:19;;;;;;;5.03;1.40;;;23.60;56.60;;;;;;5136549;27;20682;-67
2023/07/18 11:30:44;;;;;;;1.48;0.90;;;23.70;56.50;;;;;;5136076;27;20191;-67
2023/07/18 11:33:13;;;;;;;3.50;1.67;;;23.70;56.50;;;;;;5133280;27;20552;-69
2023/07/18 11:35:43;;;;;;;3.58;1.50;;;23.70;56.40;;;;;;5124957;27;20161;-69
2023/07/18 11:38:09;;;;;;;3.63;1.27;;;23.70;56.40;;;;;;5124469;27;20203;-68
2023/07/18 11:40:36;;;;;;;3.78;1.60;;;23.70;56.30;;;;;;5126695;27;20721;-68
2023/07/18 11:43:02;;;;;;;2.75;1.20;;;23.70;56.30;;;;;;5106831;27;20177;-69
2023/07/18 11:45:28;;;;;;;5.30;1.40;;;23.70;56.30;;;;;;5111517;27;20267;-70
2023/07/18 11:47:57;;;;;;;3.80;1.25;;;23.70;56.30;;;;;;5136205;27;20196;-69
2023/07/18 11:50:26;;;;;;;1.98;1.27;;;23.80;57.00;;;;;;5136304;27;20686;-68
2023/07/18 11:52:52;;;;;;;4.30;1.33;;;23.80;56.30;;;;;;5135710;27;20184;-68
2023/07/18 11:55:20;;;;;;;3.33;1.30;;;23.80;56.40;;;;;;5135849;27;20574;-68
2023/07/18 11:57:46;;;;;;;2.78;1.10;;;23.80;56.30;;;;;;5136417;27;20187;-68
2023/07/18 12:00:12;;;;;;;5.15;1.60;;;23.80;56.40;;;;;;5135194;27;20172;-70
2023/07/18 12:02:38;;;;;;;2.53;1.30;;;23.80;56.40;;;;;;5136072;27;20176;-69
2023/07/18 12:05:05;;;;;;;3.95;1.48;;;23.80;57.10;;;;;;5135950;27;20240;-70
2023/07/18 12:07:31;;;;;;;2.63;1.00;;;23.70;56.50;;;;;;5135287;27;20208;-70
2023/07/18 12:09:56;;;;;;;4.05;1.02;;;23.70;56.70;;;;;;5135804;27;20165;-70
2023/07/18 12:12:23;;;;;;;2.20;1.38;;;23.70;56.60;;;;;;5135506;27;20201;-68
2023/07/18 12:14:52;;;;;;;2.25;0.98;;;23.70;56.60;;;;;;5135053;27;20649;-68
2023/07/18 12:17:18;;;;;;;3.00;1.15;;;23.70;56.60;;;;;;5135324;27;20180;-68
2023/07/18 12:19:44;;;;;;;4.93;1.30;;;23.80;56.70;;;;;;5136052;27;20179;-68
2023/07/18 12:22:13;;;;;;;5.65;1.40;;;23.80;56.70;;;;;;5134904;27;20207;-68
2023/07/18 12:24:38;;;;;;;2.78;0.90;;;23.80;56.60;;;;;;5135839;27;20176;-68
2023/07/18 12:27:04;;;;;;;3.40;1.10;;;23.90;56.60;;;;;;5134638;27;20604;-69
2023/07/18 12:29:30;;;;;;;2.28;1.17;;;23.80;56.50;;;;;;5135597;27;20191;-68
2023/07/18 12:31:56;;;;;;;2.85;1.20;;;23.80;56.60;;;;;;5135112;27;20646;-69
2023/07/18 12:34:21;;;;;;;2.38;1.08;;;23.80;56.70;;;;;;5134112;27;20168;-69
2023/07/18 12:36:47;;;;;;;2.75;1.52;;;23.80;56.70;;;;;;5135456;27;20251;-68
2023/07/18 12:39:13;;;;;;;3.17;0.80;;;23.80;56.70;;;;;;5134834;27;20234;-69
2023/07/18 12:41:39;;;;;;;1.50;0.88;;;23.80;56.70;;;;;;5134419;27;20176;-68
2023/07/18 12:44:04;;;;;;;2.75;0.90;;;23.90;56.70;;;;;;5134898;27;20179;-69